Time;durP1;ratioP1;P1;durP2;ratioP2;P2;SDS_P1;SDS_P2;PMS_P1;PMS_P2;Temp;Humidity;BMP_temperature;BMP_pressure;BME280_temperature;BME280_humidity;BME280_pressure;Samples;Min_cycle;Max_cycle;Signal;HPM_P1;HPM_P2
2022/08/26 00:01:23;;;;;;;25.90;14.40;;;;;;;20.56;94.50;101380.56;5070826;28;20082;-74
2022/08/26 00:03:48;;;;;;;29.10;15.35;;;;;;;20.54;94.79;101376.47;5070203;28;20028;-74
2022/08/26 00:06:14;;;;;;;27.10;14.90;;;;;;;20.53;94.51;101378.34;5070740;28;20029;-73
2022/08/26 00:08:40;;;;;;;22.75;12.57;;;;;;;20.45;95.10;101375.25;5070582;28;20039;-73
2022/08/26 00:11:05;;;;;;;23.67;11.95;;;;;;;20.49;94.72;101382.63;5070482;28;20036;-73
2022/08/26 00:13:32;;;;;;;20.33;10.77;;;;;;;20.45;94.93;101380.66;5070525;28;20038;-72
2022/08/26 00:15:58;;;;;;;26.55;12.68;;;;;;;20.46;94.80;101380.44;5069136;28;20021;-73
2022/08/26 00:18:24;;;;;;;19.10;9.93;;;;;;;20.45;94.87;101391.50;5070493;28;20024;-73
2022/08/26 00:20:50;;;;;;;18.67;11.10;;;;;;;20.44;94.98;101384.47;5069941;28;20036;-73
2022/08/26 00:23:16;;;;;;;18.42;11.57;;;;;;;20.40;94.88;101378.69;5069606;28;20479;-73
2022/08/26 00:25:42;;;;;;;19.85;11.20;;;;;;;20.40;95.36;101386.81;5070313;28;20407;-73
2022/08/26 00:28:07;;;;;;;19.70;10.45;;;;;;;20.40;95.12;101391.44;5070391;28;20025;-74
2022/08/26 00:30:33;;;;;;;19.15;9.65;;;;;;;20.38;95.27;101388.97;5070197;28;20511;-73
2022/08/26 00:32:59;;;;;;;16.00;9.25;;;;;;;20.36;95.49;101393.84;5068870;28;20494;-73
2022/08/26 00:35:26;;;;;;;14.88;8.25;;;;;;;20.36;95.25;101400.06;5070070;28;20056;-74
2022/08/26 00:37:52;;;;;;;16.95;8.23;;;;;;;20.34;95.50;101394.06;5069939;28;20432;-73
2022/08/26 00:40:22;;;;;;;14.80;7.72;;;;;;;20.30;95.93;101392.09;5069608;28;20043;-73
2022/08/26 00:42:47;;;;;;;15.95;7.15;;;;;;;20.38;95.76;101407.13;5069895;28;20032;-73
2022/08/26 00:45:13;;;;;;;11.75;6.40;;;;;;;20.37;95.50;101400.88;5070111;28;20036;-73
2022/08/26 00:47:44;;;;;;;14.52;6.32;;;;;;;20.38;95.43;101399.81;5069891;28;20040;-74
2022/08/26 00:50:14;;;;;;;11.13;6.88;;;;;;;20.38;95.36;101397.09;5069847;28;20403;-73
2022/08/26 00:52:40;;;;;;;10.93;6.47;;;;;;;20.37;94.65;101398.16;5068887;28;20017;-73
2022/08/26 00:55:12;;;;;;;17.65;6.60;;;;;;;20.33;95.12;101394.31;5069706;28;20083;-74
2022/08/26 00:57:38;;;;;;;11.38;5.75;;;;;;;20.27;94.66;101387.19;5069660;28;20073;-73
2022/08/26 01:00:13;;;;;;;13.65;6.07;;;;;;;20.24;95.28;101393.91;5069800;28;20041;-74
2022/08/26 01:02:39;;;;;;;12.20;6.07;;;;;;;20.20;95.17;101387.38;5069704;28;20031;-73
2022/08/26 01:05:07;;;;;;;15.48;6.65;;;;;;;20.22;94.96;101395.22;5069637;28;20114;-73
2022/08/26 01:07:33;;;;;;;8.65;5.00;;;;;;;20.16;94.88;101398.94;5069616;28;20567;-73
2022/08/26 01:10:00;;;;;;;13.45;6.50;;;;;;;20.14;95.44;101405.41;5069461;28;20357;-73
2022/08/26 01:12:30;;;;;;;10.20;5.88;;;;;;;20.14;95.42;101408.13;5069476;28;20024;-73
2022/08/26 01:14:56;;;;;;;13.23;6.78;;;;;;;20.17;95.10;101408.69;5069010;28;20054;-73
2022/08/26 01:17:22;;;;;;;12.10;5.68;;;;;;;20.17;95.21;101404.09;5069608;28;20028;-73
2022/08/26 01:19:58;;;;;;;8.95;5.13;;;;;;;20.14;95.13;101397.28;5069502;28;20032;-73
2022/08/26 01:22:49;;;;;;;8.65;5.43;;;;;;;20.18;94.67;101392.22;5069327;28;20546;-73
2022/08/26 01:25:15;;;;;;;12.02;5.30;;;;;;;20.14;95.28;101394.56;5069298;28;20070;-74
2022/08/26 01:27:42;;;;;;;14.75;5.60;;;;;;;20.10;95.31;101398.03;5069379;28;20086;-73
2022/08/26 01:30:10;;;;;;;7.78;5.50;;;;;;;20.09;95.24;101399.91;5069106;28;20056;-74
2022/08/26 01:32:37;;;;;;;11.15;5.32;;;;;;;20.08;95.48;101398.28;5069372;28;20076;-73
2022/08/26 01:35:03;;;;;;;9.20;5.25;;;;;;;20.08;95.39;101397.47;5068925;28;20035;-73
2022/08/26 01:37:33;;;;;;;10.43;4.57;;;;;;;20.01;95.68;101397.63;5069205;28;20032;-73
2022/08/26 01:39:59;;;;;;;10.05;5.50;;;;;;;20.03;95.86;101394.66;5069196;28;20032;-73
2022/08/26 01:42:26;;;;;;;8.30;5.18;;;;;;;19.99;95.80;101388.09;5068709;28;20027;-73
2022/08/26 01:44:58;;;;;;;14.48;6.20;;;;;;;20.01;95.71;101403.03;5069177;28;20028;-73
2022/08/26 01:47:25;;;;;;;10.10;5.30;;;;;;;19.99;96.21;101402.47;5069269;28;20056;-73
2022/08/26 01:49:53;;;;;;;12.75;5.93;;;;;;;19.96;96.33;101394.81;5067903;28;20028;-73
2022/08/26 01:52:22;;;;;;;11.60;5.57;;;;;;;19.98;96.45;101398.09;5069180;28;20032;-74
2022/08/26 01:54:49;;;;;;;14.23;6.13;;;;;;;19.91;96.35;101389.31;5069066;28;20052;-73
2022/08/26 01:57:15;;;;;;;7.70;4.40;;;;;;;19.98;96.44;101397.28;5069077;28;20020;-73
2022/08/26 01:59:41;;;;;;;9.63;5.25;;;;;;;19.99;96.68;101396.22;5069017;28;20032;-73
2022/08/26 02:02:06;;;;;;;7.35;4.63;;;;;;;20.00;96.51;101398.69;5068996;28;20028;-73
2022/08/26 02:04:38;;;;;;;12.82;6.03;;;;;;;19.99;96.54;101396.22;5071862;28;20494;-73
2022/08/26 02:07:05;;;;;;;;;;;;;;;20.04;94.19;101396.31;5073195;28;20491;-73
2022/08/26 02:09:31;;;;;;;11.98;4.95;;;;;;;19.96;96.23;101391.31;5073019;28;19909;-73
2022/08/26 02:12:00;;;;;;;11.82;5.82;;;;;;;20.02;96.53;101403.88;5072824;28;20044;-73
2022/08/26 02:14:31;;;;;;;14.23;5.32;;;;;;;19.99;96.61;101397.06;5073043;28;20032;-73
2022/08/26 02:16:56;;;;;;;11.50;5.47;;;;;;;19.98;96.70;101400.81;5072942;28;20059;-73
2022/08/26 02:19:32;;;;;;;10.60;4.88;;;;;;;19.98;96.30;101400.81;5072979;28;20067;-73
2022/08/26 02:22:01;;;;;;;12.82;5.03;;;;;;;19.93;96.92;101404.25;5072785;28;20020;-74
2022/08/26 02:24:30;;;;;;;10.60;5.68;;;;;;;19.92;96.65;101399.91;5072769;28;20028;-73
2022/08/26 02:26:56;;;;;;;11.80;6.15;;;;;;;19.91;96.50;101406.41;5072772;28;20038;-73
2022/08/26 02:29:34;;;;;;;14.35;5.75;;;;;;;19.89;97.08;101405.00;5072480;28;20056;-73
2022/08/26 02:32:00;;;;;;;7.28;4.80;;;;;;;19.87;96.74;101401.72;5072554;28;20039;-67
2022/08/26 02:34:31;;;;;;;7.95;4.25;;;;;;;19.86;96.87;101416.34;5072584;28;20024;-67
2022/08/26 02:36:58;;;;;;;5.63;3.88;;;;;;;19.82;96.70;101397.03;5070703;28;20036;-67
2022/08/26 02:39:23;;;;;;;8.15;4.50;;;;;;;19.81;96.80;101402.72;5072212;28;20033;-67
2022/08/26 02:41:49;;;;;;;7.50;4.10;;;;;;;19.84;96.94;101407.63;5072369;28;20111;-66
2022/08/26 02:44:14;;;;;;;7.78;4.32;;;;;;;19.82;96.80;101410.56;5071911;28;20021;-67
2022/08/26 02:46:40;;;;;;;10.23;4.55;;;;;;;19.81;96.89;101411.66;5071985;28;20056;-67
2022/08/26 02:49:06;;;;;;;10.68;4.65;;;;;;;19.79;97.03;101416.47;5072105;28;20074;-67
2022/08/26 02:51:31;;;;;;;11.55;4.72;;;;;;;19.78;97.64;101411.31;5072090;28;20040;-67
2022/08/26 02:53:57;;;;;;;9.88;4.63;;;;;;;19.77;97.23;101415.91;5072236;28;20458;-67
2022/08/26 02:56:22;;;;;;;9.18;4.45;;;;;;;19.77;97.44;101413.19;5072190;28;20031;-67
2022/08/26 02:58:48;;;;;;;11.80;3.97;;;;;;;19.77;97.26;101407.78;5072099;28;20063;-67
2022/08/26 03:01:29;;;;;;;8.75;4.30;;;;;;;19.79;97.34;101413.78;5071929;28;20042;-67
2022/08/26 03:03:55;;;;;;;11.77;4.45;;;;;;;19.82;97.33;101412.47;5071913;28;20027;-67
2022/08/26 03:06:21;;;;;;;9.93;4.57;;;;;;;19.80;97.49;101404.56;5071960;28;20032;-67
2022/08/26 03:08:47;;;;;;;11.25;4.28;;;;;;;19.82;97.11;101412.47;5071601;28;20048;-67
2022/08/26 03:11:12;;;;;;;10.85;3.47;;;;;;;19.81;97.09;101405.41;5071700;28;20476;-67
2022/08/26 03:13:38;;;;;;;8.50;3.67;;;;;;;19.82;97.39;101415.16;5071837;28;20027;-67
2022/08/26 03:16:05;;;;;;;7.25;3.40;;;;;;;19.78;97.36;101412.16;5070968;28;20549;-67
2022/08/26 03:18:30;;;;;;;6.65;3.42;;;;;;;19.81;97.53;101410.84;5071629;28;20036;-66
2022/08/26 03:20:56;;;;;;;7.88;4.13;;;;;;;19.80;97.09;101412.69;5070543;28;20128;-66
2022/08/26 03:23:21;;;;;;;7.93;3.42;;;;;;;19.82;96.79;101410.56;5070389;28;20040;-67
2022/08/26 03:25:51;;;;;;;11.15;3.58;;;;;;;19.81;96.82;101408.94;5071708;28;20024;-67
2022/08/26 03:28:17;;;;;;;7.13;3.55;;;;;;;19.79;96.74;101410.25;5071639;28;20032;-67
2022/08/26 03:30:43;;;;;;;8.50;3.50;;;;;;;19.76;96.82;101421.56;5071274;28;20053;-67
2022/08/26 03:33:10;;;;;;;12.43;3.78;;;;;;;19.72;96.94;101407.69;5071479;28;20048;-67
2022/08/26 03:35:37;;;;;;;9.77;4.53;;;;;;;19.72;97.30;101415.81;5071379;28;20029;-67
2022/08/26 03:38:05;;;;;;;5.72;3.40;;;;;;;19.72;97.08;101415.00;5071197;28;20115;-67
2022/08/26 03:40:32;;;;;;;9.13;3.35;;;;;;;19.67;97.01;101419.22;5071320;28;20037;-67
2022/08/26 03:42:58;;;;;;;8.70;3.53;;;;;;;19.69;97.05;101419.81;5071345;28;20056;-67
2022/08/26 03:45:24;;;;;;;7.40;3.10;;;;;;;19.68;97.05;101417.38;5071035;28;20047;-67
2022/08/26 03:47:50;;;;;;;4.72;2.83;;;;;;;19.71;97.07;101419.59;5070927;28;20033;-67
2022/08/26 03:50:17;;;;;;;6.22;3.67;;;;;;;19.71;96.88;101422.28;5071201;28;20438;-67
2022/08/26 03:52:43;;;;;;;9.20;3.95;;;;;;;19.71;96.79;101419.59;5071084;28;20391;-67
2022/08/26 03:55:09;;;;;;;5.65;2.65;;;;;;;19.71;96.97;101427.72;5071007;28;20033;-67
2022/08/26 03:57:35;;;;;;;5.22;3.42;;;;;;;19.72;96.81;101428.53;5071036;28;20031;-67
2022/08/26 04:00:00;;;;;;;10.45;3.25;;;;;;;19.73;96.60;101424.75;5070854;28;20433;-67
2022/08/26 04:02:26;;;;;;;6.50;3.15;;;;;;;19.75;96.75;101422.63;5070895;28;20024;-67
2022/08/26 04:04:51;;;;;;;6.57;3.42;;;;;;;19.76;96.57;101421.56;5070929;28;20491;-67
2022/08/26 04:07:17;;;;;;;7.63;3.42;;;;;;;19.76;96.66;101421.56;5070831;28;20094;-67
2022/08/26 04:09:43;;;;;;;4.10;2.90;;;;;;;19.72;96.98;101415.81;5070815;28;20021;-67
2022/08/26 04:12:09;;;;;;;5.65;3.58;;;;;;;19.73;97.51;101422.03;5070754;28;20546;-67
2022/08/26 04:14:36;;;;;;;6.10;3.35;;;;;;;19.69;97.12;101419.00;5069450;28;20094;-67
2022/08/26 04:17:03;;;;;;;8.07;3.95;;;;;;;19.69;97.31;101421.72;5070576;28;20038;-67
2022/08/26 04:19:30;;;;;;;9.50;4.05;;;;;;;19.68;97.28;101417.38;5070644;28;20029;-67
2022/08/26 04:21:55;;;;;;;5.53;3.25;;;;;;;19.68;97.35;101423.59;5070491;28;20626;-67
2022/08/26 04:24:23;;;;;;;7.90;4.43;;;;;;;19.67;97.26;101413.81;5070366;28;20043;-67
2022/08/26 04:26:49;;;;;;;5.85;2.72;;;;;;;19.66;97.32;101412.19;5070351;28;20025;-67
2022/08/26 04:29:22;;;;;;;5.82;3.60;;;;;;;19.68;97.55;101414.66;5070111;28;20048;-67
2022/08/26 04:31:48;;;;;;;6.78;2.88;;;;;;;19.68;97.76;101420.09;5070257;28;20021;-67
2022/08/26 04:34:14;;;;;;;9.45;4.00;;;;;;;19.68;97.82;101411.97;5070132;28;20036;-67
2022/08/26 04:36:40;;;;;;;5.63;2.85;;;;;;;19.67;97.50;101413.81;5070061;28;20034;-67
2022/08/26 04:39:06;;;;;;;9.35;3.28;;;;;;;19.65;97.92;101415.94;5068770;28;20518;-67
2022/08/26 04:41:32;;;;;;;11.13;3.55;;;;;;;19.64;97.61;101419.69;5069923;28;20028;-67
2022/08/26 04:43:57;;;;;;;8.65;4.43;;;;;;;19.67;97.76;101421.13;5069908;28;20032;-67
2022/08/26 04:46:24;;;;;;;8.65;2.72;;;;;;;19.68;97.67;101431.72;5069938;28;20031;-67
2022/08/26 04:48:51;;;;;;;18.45;5.78;;;;;;;19.69;97.50;101427.94;5069979;28;20107;-67
2022/08/26 04:51:22;;;;;;;56.28;9.98;;;;;;;19.68;97.20;101420.91;5069733;28;20024;-67
2022/08/26 04:53:47;;;;;;;52.75;10.60;;;;;;;19.67;97.31;101421.13;5069845;28;20031;-67
2022/08/26 04:56:13;;;;;;;28.35;4.45;;;;;;;19.75;97.11;101433.44;5069755;28;20028;-67
2022/08/26 04:58:38;;;;;;;11.32;2.88;;;;;;;19.76;96.99;101429.69;5069698;28;20107;-67
2022/08/26 05:01:04;;;;;;;8.50;2.55;;;;;;;19.75;96.83;101436.97;5068303;28;20028;-67
2022/08/26 05:03:30;;;;;;;8.88;3.40;;;;;;;19.78;96.51;101436.50;5069742;28;20024;-67
2022/08/26 05:05:56;;;;;;;9.10;2.60;;;;;;;19.79;96.19;101435.44;5069815;28;20028;-67
2022/08/26 05:08:21;;;;;;;11.35;2.97;;;;;;;19.80;96.38;101436.25;5069759;28;20973;-67
2022/08/26 05:10:55;;;;;;;6.68;3.30;;;;;;;19.78;96.28;101441.06;5069545;28;20503;-67
2022/08/26 05:13:23;;;;;;;7.00;2.33;;;;;;;19.79;96.47;101440.84;5068304;28;20115;-67
2022/08/26 05:15:49;;;;;;;4.30;2.60;;;;;;;19.79;96.28;101440.84;5069659;28;20025;-67
2022/08/26 05:18:17;;;;;;;4.88;2.20;;;;;;;19.81;95.98;101436.00;5069568;28;20046;-67
2022/08/26 05:20:46;;;;;;;9.60;3.10;;;;;;;19.82;96.21;101437.66;5069512;28;20099;-67
2022/08/26 05:23:12;;;;;;;13.38;3.35;;;;;;;19.82;96.06;101431.41;5069458;28;20024;-67
2022/08/26 05:25:40;;;;;;;11.57;3.88;;;;;;;19.84;96.07;101437.41;5069260;28;20029;-67
2022/08/26 05:28:07;;;;;;;8.55;3.78;;;;;;;19.79;96.00;101437.31;5069360;28;20107;-67
2022/08/26 05:30:32;;;;;;;8.93;2.83;;;;;;;19.83;95.75;101449.28;5069110;28;20525;-67
2022/08/26 05:32:57;;;;;;;6.07;2.97;;;;;;;19.82;95.59;101450.38;5069159;28;20131;-67
2022/08/26 05:35:30;;;;;;;7.55;2.83;;;;;;;19.81;95.84;101452.25;5069357;28;20035;-67
2022/08/26 05:38:00;;;;;;;8.02;2.78;;;;;;;19.80;95.74;101444.38;5068802;28;20046;-67
2022/08/26 05:40:26;;;;;;;8.88;2.88;;;;;;;19.72;95.55;101451.00;5069208;28;20032;-67
2022/08/26 05:42:52;;;;;;;3.47;2.78;;;;;;;19.78;95.59;101458.16;5069319;28;20582;-67
2022/08/26 05:45:18;;;;;;;11.27;3.67;;;;;;;19.79;95.80;101458.97;5069100;28;20036;-67
2022/08/26 05:47:44;;;;;;;8.77;3.47;;;;;;;19.80;95.86;101457.91;5067995;28;20033;-67
2022/08/26 05:50:09;;;;;;;5.78;2.33;;;;;;;19.80;96.19;101452.50;5069227;28;20077;-66
2022/08/26 05:52:34;;;;;;;8.15;2.67;;;;;;;19.84;96.19;101457.19;5069038;28;20028;-67
2022/08/26 05:55:00;;;;;;;4.68;2.15;;;;;;;19.85;96.33;101447.97;5069290;28;20127;-67
2022/08/26 05:57:27;;;;;;;7.70;2.60;;;;;;;19.87;95.69;101464.81;5069186;28;20475;-67
2022/08/26 05:59:53;;;;;;;5.40;2.17;;;;;;;19.87;95.84;101464.00;5069053;28;20033;-67
2022/08/26 06:02:18;;;;;;;8.93;3.35;;;;;;;19.88;96.09;101469.16;5069073;28;20360;-67
2022/08/26 06:04:43;;;;;;;9.50;3.80;;;;;;;19.90;95.69;101466.22;5069040;28;20021;-67
2022/08/26 06:07:09;;;;;;;7.32;2.60;;;;;;;19.92;95.54;101469.50;5069001;28;20032;-67
2022/08/26 06:09:37;;;;;;;6.93;2.60;;;;;;;19.90;95.17;101472.44;5069014;28;20075;-67
2022/08/26 06:12:03;;;;;;;5.75;3.15;;;;;;;19.95;95.18;101477.13;5068942;28;20055;-67
2022/08/26 06:14:29;;;;;;;7.15;2.55;;;;;;;19.96;95.07;101472.53;5067565;28;20036;-67
2022/08/26 06:16:55;;;;;;;4.53;2.90;;;;;;;19.96;95.92;101480.66;5068978;28;20037;-67
2022/08/26 06:19:21;;;;;;;6.13;3.28;;;;;;;19.98;95.24;101484.75;5068967;28;20105;-66
2022/08/26 06:21:48;;;;;;;6.68;2.50;;;;;;;20.01;95.21;101483.44;5068784;28;20032;-67
2022/08/26 06:27:01;;;;;;;5.28;2.60;;;;;;;20.02;95.17;101477.81;5068856;28;20061;-67
2022/08/26 06:29:29;;;;;;;5.53;3.25;;;;;;;20.03;95.42;101482.13;5068574;28;20048;-67
2022/08/26 06:31:55;;;;;;;9.10;2.95;;;;;;;20.04;94.69;101491.94;5068500;28;20036;-67
2022/08/26 06:34:22;;;;;;;5.88;2.40;;;;;;;20.06;94.91;101484.34;5068496;28;20035;-67
2022/08/26 06:36:48;;;;;;;4.72;2.60;;;;;;;20.06;94.36;101487.06;5068597;28;20402;-67
2022/08/26 06:39:15;;;;;;;6.50;2.38;;;;;;;20.08;94.36;101494.94;5068271;28;20036;-68
2022/08/26 06:41:43;;;;;;;8.65;2.20;;;;;;;20.08;94.67;101495.78;5065849;28;20038;-68
2022/08/26 06:44:11;;;;;;;3.35;2.40;;;;;;;20.02;94.61;101477.81;5064173;28;20028;-66
2022/08/26 06:46:37;;;;;;;6.70;2.30;;;;;;;20.13;94.46;101503.97;5066879;28;20060;-67
2022/08/26 06:49:02;;;;;;;9.40;3.45;;;;;;;20.18;93.62;101510.56;5068240;28;20499;-67
2022/08/26 06:51:34;;;;;;;7.05;2.25;;;;;;;20.19;93.65;101507.59;5070844;28;20048;-67
2022/08/26 06:54:00;;;;;;;11.30;3.58;;;;;;;20.18;94.31;101503.25;5072111;28;20028;-67
2022/08/26 06:56:32;;;;;;;4.82;2.70;;;;;;;20.23;94.13;101500.63;5072110;28;20032;-67
2022/08/26 06:58:58;;;;;;;6.78;2.83;;;;;;;20.28;93.62;101506.13;5072005;28;20400;-67
2022/08/26 07:01:27;;;;;;;3.83;2.55;;;;;;;20.30;93.02;101505.88;5072079;28;20364;-67
2022/08/26 07:03:56;;;;;;;7.78;2.22;;;;;;;20.34;91.91;101504.34;5071834;28;20056;-67
2022/08/26 07:06:22;;;;;;;7.45;2.58;;;;;;;20.37;92.05;101506.53;5071855;28;20020;-67
2022/08/26 07:08:50;;;;;;;8.30;1.70;;;;;;;20.38;91.32;101493.81;5071976;28;20166;-66
2022/08/26 07:11:18;;;;;;;5.03;1.63;;;;;;;20.39;91.23;101492.75;5071464;28;20059;-66
2022/08/26 07:13:44;;;;;;;3.30;2.00;;;;;;;20.43;91.32;101496.59;5071515;28;20582;-67
2022/08/26 07:16:11;;;;;;;7.22;2.17;;;;;;;20.49;90.58;101503.78;5071672;28;20036;-67
2022/08/26 07:18:39;;;;;;;5.68;1.90;;;;;;;20.52;90.31;101509.50;5071864;28;20510;-67
2022/08/26 07:21:06;;;;;;;4.10;1.90;;;;;;;20.55;91.99;101506.31;5071588;28;20394;-72
2022/08/26 07:23:33;;;;;;;3.53;1.98;;;;;;;20.56;90.87;101510.66;5071586;28;20037;-73
2022/08/26 07:26:04;;;;;;;11.00;2.55;;;;;;;20.56;89.86;101509.84;5071508;28;20039;-73
2022/08/26 07:28:29;;;;;;;11.07;5.00;;;;;;;20.51;90.20;101507.03;5071497;28;20098;-74
2022/08/26 07:30:54;;;;;;;5.75;3.33;;;;;;;20.54;89.37;101523.66;5070960;28;20388;-73
2022/08/26 07:33:20;;;;;;;8.73;2.65;;;;;;;20.56;89.67;101517.97;5071645;28;20053;-75
2022/08/26 07:35:45;;;;;;;6.30;2.42;;;;;;;20.57;90.12;101515.03;5071584;28;20109;-75
2022/08/26 07:38:12;;;;;;;3.38;1.73;;;;;;;20.61;89.22;101522.66;5071475;28;20028;-76
2022/08/26 07:40:38;;;;;;;5.30;2.42;;;;;;;20.59;89.79;101531.03;5070369;28;20032;-74
2022/08/26 07:43:03;;;;;;;3.05;1.80;;;;;;;20.60;89.50;101529.16;5070798;28;20039;-76
2022/08/26 07:45:28;;;;;;;6.65;1.90;;;;;;;20.59;89.33;101528.31;5071066;28;20024;-76
2022/08/26 07:47:54;;;;;;;3.53;1.23;;;;;;;20.57;87.24;101525.06;5069741;28;20025;-74
2022/08/26 07:50:21;;;;;;;3.58;1.33;;;;;;;20.53;87.06;101535.53;5070339;28;20029;-70
2022/08/26 07:52:47;;;;;;;3.58;1.50;;;;;;;20.46;87.38;101518.63;5071013;28;20443;-71
2022/08/26 07:55:12;;;;;;;5.38;1.88;;;;;;;20.54;88.11;101537.22;5070967;28;20064;-69
2022/08/26 07:57:38;;;;;;;5.22;1.60;;;;;;;20.60;89.98;101527.28;5069554;28;20033;-71
2022/08/26 08:00:07;;;;;;;6.78;2.25;;;;;;;20.63;88.65;101536.81;5071012;28;20033;-72
2022/08/26 08:02:33;;;;;;;4.50;1.88;;;;;;;20.69;88.15;101536.63;5070579;28;20024;-70
2022/08/26 08:04:58;;;;;;;3.40;1.42;;;;;;;20.70;86.61;101535.56;5070716;28;20082;-69
2022/08/26 08:07:24;;;;;;;4.00;1.42;;;;;;;20.76;86.24;101547.31;5070851;28;20094;-70
2022/08/26 08:09:50;;;;;;;3.67;1.20;;;;;;;20.84;86.39;101537.94;5070726;28;20036;-73
2022/08/26 08:12:16;;;;;;;6.18;1.92;;;;;;;20.87;85.50;101543.69;5070241;28;20047;-71
2022/08/26 08:14:44;;;;;;;3.30;1.20;;;;;;;20.88;84.78;101541.78;5070728;28;20060;-72
2022/08/26 08:17:10;;;;;;;5.05;1.98;;;;;;;20.88;85.61;101548.03;5070550;28;20112;-72
2022/08/26 08:19:35;;;;;;;5.78;1.40;;;;;;;20.85;85.22;101545.00;5070615;28;20119;-72
2022/08/26 08:22:04;;;;;;;5.95;1.58;;;;;;;20.93;84.34;101548.13;5070392;28;20090;-72
2022/08/26 08:24:31;;;;;;;6.68;1.40;;;;;;;20.99;84.56;101543.59;5069763;28;20028;-72
2022/08/26 08:26:56;;;;;;;5.80;1.85;;;;;;;21.11;84.76;101549.72;5070250;28;20028;-71
2022/08/26 08:29:21;;;;;;;4.45;1.58;;;;;;;21.13;83.83;101544.03;5070179;28;20036;-71
2022/08/26 08:31:47;;;;;;;5.05;1.60;;;;;;;21.14;83.68;101548.38;5070263;28;20120;-71
2022/08/26 08:34:13;;;;;;;4.82;1.90;;;;;;;21.16;83.42;101560.63;5068954;28;20032;-71
2022/08/26 08:36:39;;;;;;;4.03;1.98;;;;;;;21.15;82.56;101552.75;5070162;28;20040;-71
2022/08/26 08:39:04;;;;;;;7.15;1.08;;;;;;;21.16;83.12;101559.81;5070023;28;20033;-71
2022/08/26 08:42:07;;;;;;;8.00;1.70;;;;;;;21.17;83.09;101559.56;5069514;28;20064;-71
2022/08/26 08:44:38;;;;;;;3.30;2.00;;;;;;;21.17;83.11;101561.47;5070136;28;20519;-71
2022/08/26 08:47:16;;;;;;;8.07;1.05;;;;;;;21.21;83.28;101557.19;5070111;28;20103;-72
2022/08/26 08:49:42;;;;;;;4.13;1.70;;;;;;;21.22;82.24;101551.50;5069509;28;20050;-71
2022/08/26 08:52:30;;;;;;;4.38;2.10;;;;;;;21.26;81.89;101559.16;5069255;28;20032;-67
2022/08/26 08:54:57;;;;;;;2.92;1.52;;;;;;;21.21;81.15;101551.75;5069360;28;20617;-67
2022/08/26 08:57:57;;;;;;;6.18;2.00;;;;;;;21.15;81.92;101545.44;5069650;28;20024;-66
2022/08/26 09:00:23;;;;;;;5.90;1.58;;;;;;;21.12;82.05;101550.56;5069435;28;20041;-67
2022/08/26 09:03:02;;;;;;;3.70;1.55;;;;;;;21.04;81.60;101549.09;5069761;28;20073;-66
2022/08/26 09:05:30;;;;;;;5.03;1.80;;;;;;;20.99;81.51;101555.25;5069615;28;21002;-66
2022/08/26 09:08:01;;;;;;;9.07;2.20;;;;;;;20.96;80.99;101557.66;5069780;28;20020;-67
2022/08/26 09:10:35;;;;;;;5.55;1.95;;;;;;;20.98;81.36;101555.50;5069389;28;20047;-66
2022/08/26 09:13:07;;;;;;;2.15;1.17;;;;;;;20.94;81.63;101557.06;5068952;28;20030;-67
2022/08/26 09:15:39;;;;;;;;;;;;;;;20.98;81.98;101556.31;5068855;28;20036;-67
2022/08/26 09:18:17;;;;;;;3.95;1.63;;;;;;;20.90;80.98;101561.34;5069360;28;19908;-67
2022/08/26 09:21:02;;;;;;;3.65;1.50;;;;;;;20.90;81.85;101562.16;5069432;28;20033;-66
2022/08/26 09:23:29;;;;;;;4.47;1.60;;;;;;;20.88;82.13;101568.91;5069260;28;20514;-66
2022/08/26 09:25:57;;;;;;;5.55;1.17;;;;;;;20.88;82.08;101574.31;5069119;28;20040;-67
2022/08/26 09:28:25;;;;;;;6.10;1.20;;;;;;;20.81;82.49;101560.13;5069249;28;20024;-67
2022/08/26 09:31:02;;;;;;;7.43;1.90;;;;;;;20.86;82.51;101573.75;5069223;28;20052;-67
2022/08/26 09:33:31;;;;;;;9.82;2.22;;;;;;;20.86;83.04;101568.34;5069271;28;20039;-67
2022/08/26 09:36:38;;;;;;;9.00;3.22;;;;;;;20.91;83.04;101566.53;5069315;28;20233;-66
2022/08/26 09:39:26;;;;;;;4.95;1.88;;;;;;;20.92;83.32;101570.06;5057992;28;20041;-66
2022/08/26 09:42:10;;;;;;;2.05;1.50;;;;;;;20.93;82.92;101571.69;5069186;28;20032;-67
2022/08/26 09:45:00;;;;;;;5.22;1.45;;;;;;;20.92;82.84;101570.06;5068457;28;20395;-67
2022/08/26 09:47:37;;;;;;;5.10;1.42;;;;;;;20.92;82.82;101567.34;5069118;28;20028;-66
2022/08/26 09:50:24;;;;;;;8.73;2.97;;;;;;;20.91;83.11;101569.25;5069151;28;20035;-68
2022/08/26 09:53:27;;;;;;;8.43;2.78;;;;;;;20.93;83.03;101577.09;5068801;28;20036;-65
2022/08/26 09:56:17;;;;;;;5.03;2.75;;;;;;;20.89;83.22;101579.50;5026788;28;20044;-66
2022/08/26 09:58:46;;;;;;;15.55;2.58;;;;;;;20.81;83.72;101570.97;5068278;28;20543;-66
2022/08/26 10:01:34;;;;;;;5.28;1.80;;;;;;;20.79;83.73;101577.44;5068474;28;20479;-66
2022/08/26 10:04:06;;;;;;;7.72;2.83;;;;;;;20.77;83.64;101570.63;5068513;28;20033;-66
2022/08/26 10:06:37;;;;;;;8.30;2.15;;;;;;;20.74;83.51;101573.84;5068590;28;20452;-66
2022/08/26 10:09:04;;;;;;;6.55;1.80;;;;;;;20.76;84.13;101577.13;5069044;28;20028;-65
2022/08/26 10:11:41;;;;;;;5.35;1.70;;;;;;;20.81;83.19;101579.94;5068957;28;20037;-65
2022/08/26 10:14:38;;;;;;;8.95;2.45;;;;;;;20.85;83.74;101575.63;5069017;28;20492;-65
2022/08/26 10:17:13;;;;;;;10.27;3.05;;;;;;;20.85;83.31;101578.34;5068884;28;20056;-65
2022/08/26 10:20:02;;;;;;;7.35;2.25;;;;;;;20.83;83.28;101572.38;5068861;28;20035;-65
2022/08/26 10:22:45;;;;;;;8.00;1.40;;;;;;;20.81;83.39;101576.41;5068834;28;20110;-66
2022/08/26 10:25:15;;;;;;;4.25;1.27;;;;;;;20.81;83.96;101579.94;5070146;28;20028;-65
2022/08/26 10:27:47;;;;;;;6.85;2.13;;;;;;;20.85;82.89;101578.34;5072701;28;20414;-65
2022/08/26 10:30:17;;;;;;;5.10;1.75;;;;;;;20.83;83.13;101575.09;5072469;28;20055;-66
2022/08/26 10:32:48;;;;;;;5.78;1.80;;;;;;;20.82;83.17;101572.59;5072587;28;20032;-65
2022/08/26 10:35:16;;;;;;;6.03;2.20;;;;;;;20.84;83.08;101576.72;5072457;28;20036;-66
2022/08/26 10:37:52;;;;;;;5.00;2.10;;;;;;;20.83;82.78;101574.25;5072460;28;20028;-67
2022/08/26 10:40:45;;;;;;;6.75;1.80;;;;;;;20.88;82.62;101579.75;5072500;28;20062;-67
2022/08/26 10:43:17;;;;;;;8.40;2.03;;;;;;;20.88;82.61;101582.44;5072395;28;20032;-67
2022/08/26 10:45:52;;;;;;;12.55;2.75;;;;;;;20.92;83.12;101575.47;5070590;28;20541;-66
2022/08/26 10:48:29;;;;;;;4.32;2.00;;;;;;;20.87;82.60;101573.50;5071840;28;20416;-66
2022/08/26 10:50:55;;;;;;;9.40;1.75;;;;;;;20.94;82.59;101578.78;5072145;28;20031;-66
2022/08/26 10:54:02;;;;;;;7.55;2.10;;;;;;;20.98;82.44;101578.00;5072243;28;20029;-66
2022/08/26 10:56:42;;;;;;;9.90;1.92;;;;;;;21.00;82.62;101581.28;5051309;28;20124;-66
2022/08/26 10:59:38;;;;;;;5.50;1.65;;;;;;;20.95;81.81;101570.38;5067144;28;20020;-68
2022/08/26 11:02:24;;;;;;;5.18;1.70;;;;;;;20.98;82.21;101569.06;5068032;28;20039;-67
2022/08/26 11:04:56;;;;;;;3.70;1.77;;;;;;;21.04;81.62;101576.22;5068017;28;20107;-67
2022/08/26 11:07:41;;;;;;;4.15;1.77;;;;;;;21.26;81.72;101578.94;5067659;28;20031;-66
2022/08/26 11:10:07;;;;;;;7.13;2.63;;;;;;;21.41;81.76;101573.75;5067737;28;20052;-66
2022/08/26 11:12:35;;;;;;;7.18;2.33;;;;;;;21.54;79.29;101574.47;5067353;28;20495;-66
2022/08/26 11:15:02;;;;;;;4.25;2.08;;;;;;;21.56;79.48;101584.00;5067522;28;20037;-66
2022/08/26 11:17:50;;;;;;;4.15;1.95;;;;;;;21.60;79.80;101578.88;5067610;28;20047;-66
2022/08/26 11:20:21;;;;;;;17.80;3.65;;;;;;;21.64;79.74;101570.00;5069583;28;20356;-66
2022/08/26 11:22:51;;;;;;;4.57;1.92;;;;;;;21.63;79.06;101573.75;5071568;28;20028;-66
2022/08/26 11:25:22;;;;;;;13.55;2.50;;;;;;;21.58;78.96;101572.88;5071327;28;20024;-66
2022/08/26 11:27:48;;;;;;;11.25;2.03;;;;;;;21.53;79.60;101575.53;5071333;28;20033;-66
2022/08/26 11:30:18;;;;;;;10.05;3.67;;;;;;;21.45;80.02;101569.47;5071133;28;20545;-66
2022/08/26 11:32:46;;;;;;;6.63;1.90;;;;;;;21.38;80.11;101573.47;5071375;28;20123;-67
2022/08/26 11:35:11;;;;;;;4.28;2.00;;;;;;;21.38;79.88;101570.75;5071366;28;20039;-67